createdAt,value
2022-08-22T00:02:53.248Z,73.60
2022-08-22T00:02:59.810Z,80.20
2022-08-22T00:03:17.601Z,98.30
2022-08-22T00:06:15.303Z,98.30
2022-08-22T00:09:13.884Z,98.40
2022-08-22T00:12:16.088Z,98.50
2022-08-22T00:15:12.734Z,98.60
2022-08-22T00:18:24.140Z,98.50
2022-08-22T00:21:18.435Z,98.30
2022-08-22T00:24:19.919Z,98.70
2022-08-22T00:27:12.091Z,98.70
2022-08-22T00:30:08.769Z,98.70
2022-08-22T00:33:03.645Z,98.90
2022-08-22T00:36:02.019Z,99.00
2022-08-22T00:39:00.156Z,99.00
2022-08-22T00:42:31.759Z,99.20
2022-08-22T00:45:44.859Z,99.40
2022-08-22T00:48:56.935Z,99.60
2022-08-22T00:52:16.411Z,99.60
2022-08-22T00:55:40.996Z,99.70
2022-08-22T00:59:23.093Z,99.80
2022-08-22T01:02:29.331Z,99.60
2022-08-22T01:05:47.194Z,99.60
2022-08-22T01:08:47.504Z,99.80
2022-08-22T01:12:17.926Z,99.80
2022-08-22T01:15:12.730Z,99.90
2022-08-22T01:18:18.160Z,99.90
2022-08-22T01:21:40.689Z,99.90
2022-08-22T01:25:18.399Z,99.90
2022-08-22T01:28:35.592Z,99.90
2022-08-22T01:31:57.568Z,99.90
2022-08-22T01:35:19.897Z,99.90
2022-08-22T01:38:43.639Z,99.90
2022-08-22T01:41:54.235Z,99.90
2022-08-22T01:45:03.220Z,99.90
2022-08-22T01:47:55.959Z,99.90
2022-08-22T01:50:49.449Z,99.90
2022-08-22T01:53:45.745Z,99.90
2022-08-22T01:56:37.133Z,99.90
2022-08-22T01:59:34.084Z,99.90
2022-08-22T02:02:36.156Z,99.90
2022-08-22T02:05:31.806Z,99.90
2022-08-22T02:08:40.650Z,99.90
2022-08-22T02:11:40.884Z,99.90
2022-08-22T02:14:45.933Z,99.90
2022-08-22T02:17:36.048Z,99.90
2022-08-22T02:20:27.102Z,99.90
2022-08-22T02:23:25.270Z,99.90
2022-08-22T02:26:18.098Z,99.90
2022-08-22T02:29:10.802Z,99.90
2022-08-22T02:32:07.730Z,99.90
2022-08-22T02:35:03.788Z,99.90
2022-08-22T02:38:00.693Z,99.90
2022-08-22T02:41:08.691Z,99.90
2022-08-22T02:44:02.232Z,99.90
2022-08-22T02:46:55.636Z,99.90
2022-08-22T02:49:55.807Z,99.90
2022-08-22T02:53:04.360Z,99.90
2022-08-22T02:56:05.511Z,99.90
2022-08-22T02:59:00.202Z,99.90
2022-08-22T03:01:50.137Z,99.90
2022-08-22T03:04:55.039Z,99.90
2022-08-22T03:07:50.265Z,99.90
2022-08-22T03:10:48.923Z,99.90
2022-08-22T03:14:08.394Z,99.90
2022-08-22T03:17:03.361Z,99.90
2022-08-22T03:23:25.220Z,99.90
2022-08-22T03:26:18.150Z,99.90
2022-08-22T03:29:17.562Z,99.90
2022-08-22T03:32:14.478Z,99.90
2022-08-22T03:35:22.985Z,99.90
2022-08-22T03:38:18.123Z,99.90
2022-08-22T03:41:28.085Z,99.90
2022-08-22T03:44:52.076Z,99.90
2022-08-22T03:48:07.590Z,99.90
2022-08-22T03:51:21.435Z,99.90
2022-08-22T03:54:31.475Z,99.90
2022-08-22T03:58:17.179Z,99.90
2022-08-22T04:01:57.667Z,99.90
2022-08-22T04:05:16.215Z,99.90
2022-08-22T04:08:35.251Z,99.90
2022-08-22T04:11:53.613Z,99.90
2022-08-22T04:15:09.682Z,99.90
2022-08-22T04:18:36.509Z,99.90
2022-08-22T04:21:50.687Z,99.90
2022-08-22T04:24:52.146Z,99.90
2022-08-22T04:27:48.119Z,99.90
2022-08-22T04:30:42.009Z,99.90
2022-08-22T04:33:36.091Z,99.90
2022-08-22T04:36:29.120Z,99.90
2022-08-22T04:39:22.721Z,99.90
2022-08-22T04:42:32.288Z,99.90
2022-08-22T04:45:24.894Z,99.90
2022-08-22T04:48:20.835Z,99.90
2022-08-22T04:51:25.092Z,99.90
2022-08-22T04:54:27.010Z,99.90
2022-08-22T04:57:26.033Z,99.90
2022-08-22T05:00:16.206Z,99.90
2022-08-22T05:03:09.399Z,99.90
2022-08-22T05:06:00.114Z,99.90
2022-08-22T05:08:54.055Z,99.90
2022-08-22T05:11:43.151Z,99.90
2022-08-22T05:14:38.996Z,99.90
2022-08-22T05:17:30.297Z,99.90
2022-08-22T05:20:22.089Z,99.90
2022-08-22T05:23:17.160Z,99.90
2022-08-22T05:26:08.581Z,99.90
2022-08-22T05:29:02.731Z,99.90
2022-08-22T05:31:59.014Z,99.90
2022-08-22T05:34:51.468Z,99.90
2022-08-22T05:37:44.358Z,99.90
2022-08-22T05:40:34.152Z,99.90
2022-08-22T05:43:28.127Z,99.90
2022-08-22T05:46:27.108Z,99.90
2022-08-22T05:49:20.744Z,99.90
2022-08-22T05:52:16.960Z,99.90
2022-08-22T05:55:12.411Z,99.90
2022-08-22T05:58:42.307Z,99.90
2022-08-22T06:01:36.421Z,99.90
2022-08-22T06:04:33.566Z,99.90
2022-08-22T06:07:26.902Z,99.90
2022-08-22T06:10:23.451Z,99.90
2022-08-22T06:13:15.111Z,99.90
2022-08-22T06:16:11.634Z,99.90
2022-08-22T06:19:00.159Z,99.90
2022-08-22T06:21:50.889Z,99.90
2022-08-22T06:24:41.658Z,99.90
2022-08-22T06:27:31.245Z,99.90
2022-08-22T06:30:20.868Z,99.90
2022-08-22T06:33:13.431Z,99.90
2022-08-22T06:36:23.352Z,99.90
2022-08-22T06:39:18.471Z,99.90
2022-08-22T06:42:15.860Z,99.90
2022-08-22T06:45:09.671Z,99.90
2022-08-22T06:48:16.925Z,99.90
2022-08-22T06:51:08.262Z,99.90
2022-08-22T06:54:00.210Z,99.90
2022-08-22T06:56:51.822Z,99.90
2022-08-22T06:59:40.417Z,99.90
2022-08-22T07:02:34.380Z,99.90
2022-08-22T07:05:28.129Z,99.90
2022-08-22T07:08:21.124Z,99.90
2022-08-22T07:11:14.789Z,99.90
2022-08-22T07:14:05.771Z,99.90
2022-08-22T07:16:59.138Z,99.90
2022-08-22T07:19:54.983Z,99.90
2022-08-22T07:22:54.273Z,99.90
2022-08-22T07:25:52.296Z,99.90
2022-08-22T07:28:51.469Z,99.90
2022-08-22T07:31:52.328Z,99.90
2022-08-22T07:34:56.720Z,99.90
2022-08-22T07:38:00.112Z,99.90
2022-08-22T07:40:56.555Z,99.90
2022-08-22T07:43:49.048Z,99.90
2022-08-22T07:46:41.392Z,99.90
2022-08-22T07:49:33.369Z,99.90
2022-08-22T07:52:22.392Z,99.90
2022-08-22T07:55:18.647Z,99.90
2022-08-22T07:58:08.855Z,99.90
2022-08-22T08:00:58.090Z,99.90
2022-08-22T08:03:54.833Z,99.90
2022-08-22T08:06:42.933Z,99.90
2022-08-22T08:09:35.917Z,99.90
2022-08-22T08:12:31.138Z,99.90
2022-08-22T08:15:22.039Z,99.90
2022-08-22T08:18:13.320Z,99.90
2022-08-22T08:21:04.656Z,99.90
2022-08-22T08:23:53.756Z,99.90
2022-08-22T08:27:06.271Z,99.90
2022-08-22T08:29:58.938Z,99.90
2022-08-22T08:32:59.581Z,99.90
2022-08-22T08:36:11.240Z,99.90
2022-08-22T08:39:10.193Z,99.90
2022-08-22T08:42:59.948Z,99.90
2022-08-22T08:46:25.537Z,99.90
2022-08-22T08:49:47.320Z,99.90
2022-08-22T08:53:08.976Z,99.90
2022-08-22T08:56:04.901Z,99.90
2022-08-22T08:59:02.190Z,99.90
2022-08-22T09:02:20.380Z,99.80
2022-08-22T09:05:41.621Z,99.90
2022-08-22T09:08:56.134Z,99.90
2022-08-22T09:12:20.796Z,99.70
2022-08-22T09:15:19.912Z,99.30
2022-08-22T09:18:47.396Z,99.50
2022-08-22T09:25:38.483Z,99.70
2022-08-22T09:28:35.163Z,99.20
2022-08-22T09:31:48.079Z,99.50
2022-08-22T09:34:56.602Z,98.60
2022-08-22T09:38:00.331Z,97.80
2022-08-22T09:40:54.455Z,96.80
2022-08-22T09:43:48.909Z,96.90
2022-08-22T09:46:54.573Z,95.90
2022-08-22T09:50:03.198Z,95.90
2022-08-22T09:53:03.068Z,95.50
2022-08-22T09:55:56.774Z,95.20
2022-08-22T09:58:57.778Z,95.60
2022-08-22T10:01:52.696Z,94.60
2022-08-22T10:04:46.122Z,94.10
2022-08-22T10:07:53.992Z,94.60
2022-08-22T10:10:55.756Z,94.90
2022-08-22T10:13:57.523Z,94.30
2022-08-22T10:17:00.383Z,94.70
2022-08-22T10:19:53.865Z,93.60
2022-08-22T10:22:47.248Z,94.20
2022-08-22T10:25:41.791Z,94.50
2022-08-22T10:28:39.883Z,93.60
2022-08-22T10:31:35.623Z,91.90
2022-08-22T10:34:49.560Z,92.50
2022-08-22T10:37:46.198Z,92.80
2022-08-22T10:40:40.701Z,92.50
2022-08-22T10:43:44.580Z,93.60
2022-08-22T10:46:39.574Z,92.90
2022-08-22T10:49:35.294Z,93.20
2022-08-22T10:52:26.580Z,92.10
2022-08-22T10:55:18.881Z,92.10
2022-08-22T10:58:13.173Z,92.90
2022-08-22T11:01:38.253Z,92.80
2022-08-22T11:04:28.272Z,92.00
2022-08-22T11:07:46.720Z,91.90
2022-08-22T11:10:52.253Z,90.60
2022-08-22T11:13:47.964Z,91.90
2022-08-22T11:16:55.109Z,91.80
2022-08-22T11:20:03.190Z,90.00
2022-08-22T11:23:16.386Z,90.20
2022-08-22T11:26:14.857Z,91.60
2022-08-22T11:29:32.861Z,90.20
2022-08-22T11:32:33.665Z,89.90
2022-08-22T11:35:24.215Z,90.00
2022-08-22T11:38:25.867Z,88.20
2022-08-22T11:41:26.111Z,85.70
2022-08-22T11:44:20.176Z,83.90
2022-08-22T11:47:14.517Z,84.70
2022-08-22T11:50:13.540Z,81.70
2022-08-22T11:53:18.090Z,82.20
2022-08-22T11:56:17.872Z,81.00
2022-08-22T11:59:26.903Z,80.90
2022-08-22T12:02:22.849Z,83.30
2022-08-22T12:05:19.683Z,79.70
2022-08-22T12:08:21.335Z,80.80
2022-08-22T12:11:13.529Z,80.30
2022-08-22T12:14:06.835Z,80.50
2022-08-22T12:17:26.284Z,79.80
2022-08-22T12:20:52.246Z,76.50
2022-08-22T12:24:06.228Z,75.70
2022-08-22T12:27:28.518Z,77.20
2022-08-22T12:30:23.166Z,77.00
2022-08-22T12:33:37.383Z,69.90
2022-08-22T12:36:48.477Z,64.30
2022-08-22T12:39:55.775Z,66.40
2022-08-22T12:43:09.967Z,66.00
2022-08-22T12:46:16.217Z,64.70
2022-08-22T12:49:19.185Z,66.50
2022-08-22T12:52:24.986Z,68.00
2022-08-22T12:55:34.174Z,68.70
2022-08-22T12:58:35.453Z,67.00
2022-08-22T13:01:34.109Z,70.00
2022-08-22T13:04:32.450Z,69.20
2022-08-22T13:07:28.680Z,66.30
2022-08-22T13:10:38.202Z,68.60
2022-08-22T13:13:31.611Z,67.60
2022-08-22T13:16:27.269Z,67.10
2022-08-22T13:19:21.398Z,67.40
2022-08-22T13:22:14.399Z,63.20
2022-08-22T13:25:06.492Z,65.00
2022-08-22T13:28:03.387Z,65.90
2022-08-22T13:30:54.960Z,61.80
2022-08-22T13:33:47.871Z,58.80
2022-08-22T13:36:51.696Z,59.50
2022-08-22T13:39:44.803Z,59.80
2022-08-22T13:42:40.283Z,59.60
2022-08-22T13:45:30.297Z,59.50
2022-08-22T13:48:23.666Z,59.10
2022-08-22T13:51:23.623Z,59.70
2022-08-22T13:54:38.925Z,61.20
2022-08-22T13:57:32.286Z,59.80
2022-08-22T14:01:08.845Z,61.00
2022-08-22T14:04:00.027Z,59.00
2022-08-22T14:06:52.799Z,56.50
2022-08-22T14:09:51.301Z,58.00
2022-08-22T14:12:51.109Z,57.90
2022-08-22T14:15:46.132Z,57.90
2022-08-22T14:18:45.578Z,57.90
2022-08-22T14:21:41.576Z,57.40
2022-08-22T14:24:33.554Z,57.10
2022-08-22T14:27:36.790Z,57.10
2022-08-22T14:30:32.247Z,56.80
2022-08-22T14:33:23.239Z,56.20
2022-08-22T14:36:17.235Z,55.60
2022-08-22T14:39:11.853Z,55.50
2022-08-22T14:42:10.047Z,55.30
2022-08-22T14:45:06.672Z,54.90
2022-08-22T14:48:29.287Z,53.30
2022-08-22T14:51:10.086Z,53.60
2022-08-22T14:54:21.444Z,53.80
2022-08-22T14:57:18.499Z,54.10
2022-08-22T15:00:12.103Z,51.20
2022-08-22T15:03:13.492Z,52.40
2022-08-22T15:06:04.216Z,52.90
2022-08-22T15:08:53.044Z,53.00
2022-08-22T15:11:49.378Z,53.20
2022-08-22T15:14:48.973Z,53.20
2022-08-22T15:17:45.191Z,53.00
2022-08-22T15:20:38.260Z,53.20
2022-08-22T15:23:34.132Z,53.60
2022-08-22T15:26:39.265Z,53.00
2022-08-22T15:29:36.477Z,51.00
2022-08-22T15:32:29.333Z,52.50
2022-08-22T15:35:33.487Z,52.60
2022-08-22T15:38:29.402Z,51.30
2022-08-22T15:41:46.002Z,51.50
2022-08-22T15:44:38.914Z,51.70
2022-08-22T15:47:36.246Z,52.10
2022-08-22T15:50:35.574Z,51.90
2022-08-22T15:53:27.404Z,52.50
2022-08-22T15:56:27.005Z,51.50
2022-08-22T15:59:47.716Z,51.70
2022-08-22T16:02:42.552Z,51.60
2022-08-22T16:05:43.602Z,52.00
2022-08-22T16:08:47.042Z,51.30
2022-08-22T16:11:39.226Z,51.60
2022-08-22T16:14:46.909Z,51.50
2022-08-22T16:17:53.364Z,51.10
2022-08-22T16:20:54.130Z,51.00
2022-08-22T16:24:21.487Z,51.20
2022-08-22T16:27:21.627Z,51.20
2022-08-22T16:30:15.084Z,51.90
2022-08-22T16:33:06.820Z,51.50
2022-08-22T16:36:42.616Z,51.80
2022-08-22T16:39:39.807Z,51.50
2022-08-22T16:42:35.535Z,52.10
2022-08-22T16:45:35.559Z,52.20
2022-08-22T16:48:33.355Z,51.90
2022-08-22T16:51:22.295Z,52.30
2022-08-22T16:54:13.429Z,52.90
2022-08-22T16:57:14.816Z,53.20
2022-08-22T17:00:11.652Z,52.30
2022-08-22T17:03:10.586Z,53.00
2022-08-22T17:06:07.414Z,53.50
2022-08-22T17:09:06.555Z,54.60
2022-08-22T17:12:03.402Z,54.90
2022-08-22T17:14:59.770Z,55.60
2022-08-22T17:18:12.173Z,56.30
2022-08-22T17:21:09.908Z,56.50
2022-08-22T17:24:04.531Z,56.80
2022-08-22T17:26:58.917Z,57.40
2022-08-22T17:30:02.069Z,57.40
2022-08-22T17:33:10.288Z,57.30
2022-08-22T17:36:26.241Z,57.10
2022-08-22T17:39:29.684Z,57.00
2022-08-22T17:42:47.010Z,58.00
2022-08-22T17:45:50.125Z,57.60
2022-08-22T17:48:45.929Z,57.80
2022-08-22T17:51:41.368Z,58.10
2022-08-22T17:54:37.968Z,58.00
2022-08-22T17:57:30.572Z,58.30
2022-08-22T18:00:25.576Z,58.70
2022-08-22T18:03:26.019Z,58.50
2022-08-22T18:06:20.763Z,58.60
2022-08-22T18:09:24.152Z,58.70
2022-08-22T18:12:18.443Z,57.90
2022-08-22T18:15:10.238Z,57.70
2022-08-22T18:18:03.392Z,57.70
2022-08-22T18:20:56.911Z,57.60
2022-08-22T18:23:49.531Z,57.70
2022-08-22T18:26:49.663Z,58.50
2022-08-22T18:29:46.392Z,59.00
2022-08-22T18:32:39.639Z,59.40
2022-08-22T18:35:34.832Z,60.00
2022-08-22T18:38:32.269Z,60.80
2022-08-22T18:41:31.509Z,61.60
2022-08-22T18:44:24.802Z,62.60
2022-08-22T18:47:17.500Z,62.70
2022-08-22T18:50:30.646Z,63.70
2022-08-22T18:53:37.526Z,62.50
2022-08-22T18:56:50.761Z,62.70
2022-08-22T18:59:54.186Z,62.20
2022-08-22T19:03:10.312Z,61.40
2022-08-22T19:06:37.786Z,61.80
2022-08-22T19:09:45.094Z,62.00
2022-08-22T19:12:55.232Z,61.90
2022-08-22T19:15:58.322Z,62.50
2022-08-22T19:18:54.667Z,62.70
2022-08-22T19:22:22.655Z,63.00
2022-08-22T19:25:20.845Z,63.40
2022-08-22T19:28:26.909Z,63.90
2022-08-22T19:31:25.889Z,63.60
2022-08-22T19:34:19.282Z,63.60
2022-08-22T19:37:32.255Z,63.60
2022-08-22T19:40:53.172Z,63.90
2022-08-22T19:43:42.118Z,64.00
2022-08-22T19:46:39.407Z,64.60
2022-08-22T19:49:30.350Z,64.70
2022-08-22T19:52:29.744Z,65.00
2022-08-22T19:55:26.010Z,65.30
2022-08-22T19:58:31.729Z,65.90
2022-08-22T20:04:49.730Z,65.80
2022-08-22T20:07:57.523Z,65.90
2022-08-22T20:10:58.593Z,65.90
2022-08-22T20:13:47.042Z,66.30
2022-08-22T20:16:59.466Z,66.70
2022-08-22T20:23:07.131Z,67.10
2022-08-22T20:25:57.011Z,68.00
2022-08-22T20:28:48.747Z,68.70
2022-08-22T20:31:38.010Z,68.70
2022-08-22T20:34:29.074Z,68.90
2022-08-22T20:41:00.567Z,68.60
2022-08-22T20:43:54.443Z,67.40
2022-08-22T20:46:55.949Z,67.10
2022-08-22T20:49:47.741Z,66.40
2022-08-22T20:52:41.610Z,65.90
2022-08-22T20:59:36.050Z,65.80
2022-08-22T21:02:32.781Z,64.50
2022-08-22T21:05:33.531Z,64.50
2022-08-22T21:08:40.343Z,65.10
2022-08-22T21:11:40.515Z,65.50
2022-08-22T21:14:34.008Z,65.40
2022-08-22T21:17:26.652Z,65.20
2022-08-22T21:20:22.166Z,65.80
2022-08-22T21:23:14.396Z,65.60
2022-08-22T21:26:07.591Z,65.10
2022-08-22T21:28:59.912Z,65.10
2022-08-22T21:31:50.151Z,65.40
2022-08-22T21:34:42.996Z,65.70
2022-08-22T21:37:38.398Z,65.60
2022-08-22T21:40:33.381Z,65.30
2022-08-22T21:43:36.844Z,65.90
2022-08-22T21:46:28.552Z,65.70
2022-08-22T21:49:24.761Z,66.20
2022-08-22T21:52:12.992Z,66.40
2022-08-22T21:55:15.931Z,66.00
2022-08-22T21:58:12.087Z,66.40
2022-08-22T22:01:24.892Z,66.50
2022-08-22T22:04:15.392Z,66.60
2022-08-22T22:07:03.379Z,66.90
2022-08-22T22:09:54.386Z,67.00
2022-08-22T22:12:44.823Z,67.00
2022-08-22T22:15:38.107Z,67.40
2022-08-22T22:18:32.508Z,67.70
2022-08-22T22:21:26.078Z,67.60
2022-08-22T22:24:15.929Z,68.30
2022-08-22T22:27:04.628Z,67.90
2022-08-22T22:29:52.567Z,67.80
2022-08-22T22:32:40.517Z,68.10
2022-08-22T22:35:32.234Z,68.10
2022-08-22T22:38:23.872Z,68.50
2022-08-22T22:41:12.542Z,68.50
2022-08-22T22:44:05.279Z,69.10
2022-08-22T22:46:57.665Z,69.20
2022-08-22T22:49:46.117Z,69.30
2022-08-22T22:52:40.671Z,69.30
2022-08-22T22:55:29.005Z,69.20
2022-08-22T22:58:19.615Z,69.60
2022-08-22T23:01:09.661Z,70.20
2022-08-22T23:04:05.410Z,70.40
2022-08-22T23:06:55.627Z,70.60
2022-08-22T23:09:45.368Z,70.90
2022-08-22T23:12:34.129Z,71.40
2022-08-22T23:15:22.373Z,71.40
2022-08-22T23:18:10.310Z,71.80
2022-08-22T23:20:58.194Z,71.80
2022-08-22T23:23:47.219Z,72.90
2022-08-22T23:26:36.925Z,72.90
2022-08-22T23:29:25.134Z,73.50
2022-08-22T23:32:14.630Z,73.90
2022-08-22T23:35:02.851Z,73.70
2022-08-22T23:37:50.888Z,74.10
2022-08-22T23:40:38.841Z,74.40
2022-08-22T23:43:28.094Z,74.90
2022-08-22T23:46:17.436Z,75.10
2022-08-22T23:49:06.442Z,74.80
2022-08-22T23:51:54.713Z,75.20
2022-08-22T23:54:42.570Z,74.80
2022-08-22T23:57:30.487Z,75.10
